Time;durP1;ratioP1;P1;durP2;ratioP2;P2;SDS_P1;SDS_P2;PMS_P1;PMS_P2;Temp;Humidity;BMP_temperature;BMP_pressure;BME280_temperature;BME280_humidity;BME280_pressure;Samples;Min_cycle;Max_cycle;Signal;HPM_P1;HPM_P2
2024/03/29 00:00:35;;;;;;;;;;;;;;;8.15;69.54;99875.00;5060581;28;20011;-68
2024/03/29 00:03:01;;;;;;;;;;;;;;;8.16;69.80;99866.03;5084342;28;19946;-69
2024/03/29 00:05:26;;;;;;;;;;;;;;;8.18;69.65;99864.03;5067203;28;19927;-68
2024/03/29 00:07:52;;;;;;;;;;;;;;;8.17;69.52;99862.38;5066958;28;19925;-70
2024/03/29 00:10:17;;;;;;;;;;;;;;;8.13;69.30;99858.41;5063349;28;19924;-70
2024/03/29 00:12:43;;;;;;;;;;;;;;;8.13;69.47;99857.59;5061972;28;19932;-70
2024/03/29 00:15:08;;;;;;;;;;;;;;;8.11;69.46;99847.16;5062060;28;19920;-69
2024/03/29 00:17:34;;;;;;;;;;;;;;;8.09;68.91;99843.81;5062740;28;19932;-69
2024/03/29 00:19:59;;;;;;;;;;;;;;;8.03;69.08;99844.50;5064736;28;20366;-70
2024/03/29 00:22:24;;;;;;;;;;;;;;;8.00;69.04;99840.34;5055414;28;19921;-68
2024/03/29 00:24:50;;;;;;;;;;;;;;;8.03;69.55;99833.88;5056191;28;19933;-71
2024/03/29 00:27:15;;;;;;;;;;;;;;;8.00;68.46;99834.22;5059036;28;19924;-69
2024/03/29 00:29:43;;;;;;;;;;;;;;;7.97;68.91;99832.75;5064895;28;19932;-69
2024/03/29 00:32:09;;;;;;;;;;;;;;;7.99;69.34;99822.78;5071173;28;19944;-69
2024/03/29 00:34:34;;;;;;;;;;;;;;;7.97;69.09;99824.78;5069737;28;19924;-71
2024/03/29 00:36:59;;;;;;;;;;;;;;;7.97;69.18;99819.50;5047857;28;20492;-68
2024/03/29 00:39:25;;;;;;;;;;;;;;;7.95;69.18;99810.03;5059755;28;19920;-69
2024/03/29 00:41:52;;;;;;;;;;;;;;;7.93;68.61;99807.56;5060485;28;20348;-68
2024/03/29 00:44:18;;;;;;;;;;;;;;;7.90;68.87;99804.44;5058675;28;19925;-69
2024/03/29 00:46:43;;;;;;;;;;;;;;;7.87;68.60;99796.81;5064602;28;19978;-68
2024/03/29 00:49:08;;;;;;;;;;;;;;;7.84;68.45;99797.16;5064237;28;19920;-69
2024/03/29 00:51:34;;;;;;;;;;;;;;;7.82;68.40;99789.38;5059973;28;19932;-69
2024/03/29 00:53:59;;;;;;;;;;;;;;;7.81;68.38;99786.91;5065435;28;19920;-70
2024/03/29 00:56:24;;;;;;;;;;;;;;;7.79;68.63;99787.03;5061386;28;20007;-69
2024/03/29 00:58:50;;;;;;;;;;;;;;;7.80;69.61;99779.91;5068974;28;20396;-68
2024/03/29 01:01:15;;;;;;;;;;;;;;;7.84;69.30;99779.44;5067881;28;19924;-69
2024/03/29 01:03:40;;;;;;;;;;;;;;;7.81;68.54;99771.00;5067805;28;19928;-70
2024/03/29 01:06:06;;;;;;;;;;;;;;;7.80;68.99;99766.66;5066762;28;20375;-68
2024/03/29 01:08:31;;;;;;;;;;;;;;;7.72;68.69;99768.34;5066643;28;19931;-72
2024/03/29 01:10:56;;;;;;;;;;;;;;;7.58;68.96;99763.72;5063792;28;20418;-69
2024/03/29 01:13:22;;;;;;;;;;;;;;;7.43;68.94;99765.38;5061630;28;20475;-70
2024/03/29 01:15:47;;;;;;;;;;;;;;;7.28;70.62;99765.25;5067753;28;20438;-68
2024/03/29 01:18:12;;;;;;;;;;;;;;;7.15;70.59;99762.25;5063466;28;20400;-69
2024/03/29 01:20:38;;;;;;;;;;;;;;;7.04;70.94;99758.09;5063598;28;19928;-69
2024/03/29 01:23:03;;;;;;;;;;;;;;;6.95;71.23;99756.44;5067681;28;19927;-71
2024/03/29 01:25:31;;;;;;;;;;;;;;;6.87;72.55;99751.13;5063379;28;19924;-69
2024/03/29 01:27:56;;;;;;;;;;;;;;;6.81;72.61;99751.78;5065422;28;19924;-69
2024/03/29 01:30:21;;;;;;;;;;;;;;;6.73;72.93;99751.78;5069773;28;19924;-69
2024/03/29 01:32:47;;;;;;;;;;;;;;;6.65;72.65;99743.81;5065152;28;19924;-68
2024/03/29 01:35:12;;;;;;;;;;;;;;;6.65;72.48;99741.16;5059698;28;20015;-67
2024/03/29 01:37:39;;;;;;;;;;;;;;;6.71;72.52;99732.59;5066837;28;19924;-69
2024/03/29 01:40:04;;;;;;;;;;;;;;;6.80;71.38;99735.06;5056581;28;19920;-70
2024/03/29 01:42:30;;;;;;;;;;;;;;;6.91;70.26;99730.44;5067662;28;19928;-69
2024/03/29 01:44:55;;;;;;;;;;;;;;;7.01;70.51;99726.66;5069550;28;20421;-69
2024/03/29 01:47:21;;;;;;;;;;;;;;;7.07;69.06;99726.00;5066505;28;19990;-69
2024/03/29 01:49:46;;;;;;;;;;;;;;;7.10;68.72;99717.72;5065791;28;19925;-67
2024/03/29 01:52:15;;;;;;;;;;;;;;;7.17;68.28;99719.72;5062376;28;19924;-69
2024/03/29 01:54:42;;;;;;;;;;;;;;;7.21;68.08;99715.72;5056530;28;20406;-68
2024/03/29 01:57:07;;;;;;;;;;;;;;;7.20;67.81;99708.78;5064956;28;19969;-71
2024/03/29 01:59:32;;;;;;;;;;;;;;;7.20;67.08;99709.59;5064804;28;19920;-68
2024/03/29 02:01:58;;;;;;;;;;;;;;;7.24;67.93;99704.84;5070456;28;19930;-70
2024/03/29 02:04:24;;;;;;;;;;;;;;;7.26;68.26;99700.19;5068209;28;19925;-70
2024/03/29 02:06:49;;;;;;;;;;;;;;;7.29;67.50;99705.16;5071220;28;19920;-69
2024/03/29 02:09:15;;;;;;;;;;;;;;;7.30;67.27;99696.22;5071055;28;20331;-71
2024/03/29 02:11:40;;;;;;;;;;;;;;;7.33;67.63;99698.53;5073948;28;19924;-70
2024/03/29 02:14:06;;;;;;;;;;;;;;;7.36;67.64;99695.53;5066928;28;19925;-69
2024/03/29 02:16:32;;;;;;;;;;;;;;;7.42;67.63;99697.50;5061533;28;20015;-70
2024/03/29 02:18:57;;;;;;;;;;;;;;;7.49;67.50;99697.66;5071863;28;19946;-68
2024/03/29 02:21:22;;;;;;;;;;;;;;;7.49;66.01;99687.06;5066528;28;19929;-69
2024/03/29 02:23:51;;;;;;;;;;;;;;;7.48;66.56;99683.59;5071200;28;20024;-72
2024/03/29 02:26:16;;;;;;;;;;;;;;;7.40;66.29;99679.13;5068215;28;19929;-69
2024/03/29 02:28:42;;;;;;;;;;;;;;;7.41;66.59;99680.78;5064608;28;19925;-69
2024/03/29 02:31:08;;;;;;;;;;;;;;;7.38;66.39;99675.00;5088335;28;20010;-69
2024/03/29 02:33:33;;;;;;;;;;;;;;;7.35;66.11;99676.16;5064422;28;20423;-70
2024/03/29 02:35:58;;;;;;;;;;;;;;;7.35;66.71;99676.16;5065673;28;19978;-69
2024/03/29 02:38:24;;;;;;;;;;;;;;;7.32;67.33;99678.31;5063402;28;19931;-71
2024/03/29 02:40:49;;;;;;;;;;;;;;;7.38;67.57;99682.94;5070090;28;20288;-68
2024/03/29 02:43:14;;;;;;;;;;;;;;;7.39;66.93;99682.78;5065838;28;19928;-70
2024/03/29 02:45:40;;;;;;;;;;;;;;;7.45;67.01;99681.28;5066028;28;20396;-68
2024/03/29 02:48:05;;;;;;;;;;;;;;;7.46;66.65;99681.09;5062208;28;20380;-69
2024/03/29 02:50:31;;;;;;;;;;;;;;;7.47;67.42;99676.63;5064438;28;19936;-70
2024/03/29 02:52:56;;;;;;;;;;;;;;;7.45;67.09;99681.28;5061742;28;19927;-72
2024/03/29 02:55:21;;;;;;;;;;;;;;;7.43;67.36;99672.66;5069879;28;19920;-72
2024/03/29 02:57:47;;;;;;;;;;;;;;;7.45;67.70;99675.97;5061232;28;19924;-69
2024/03/29 03:00:13;;;;;;;;;;;;;;;7.49;67.30;99671.16;5063731;28;19927;-68
2024/03/29 03:02:39;;;;;;;;;;;;;;;7.44;67.73;99674.31;5061487;28;20369;-69
2024/03/29 03:05:05;;;;;;;;;;;;;;;7.44;67.44;99669.03;5064190;28;19931;-70
2024/03/29 03:12:57;;;;;;;;;;;;;;;7.41;68.58;99666.72;5063878;28;19921;-70
2024/03/29 03:15:23;;;;;;;;;;;;;;;7.44;68.34;99663.72;5062460;28;20382;-69
2024/03/29 03:17:48;;;;;;;;;;;;;;;7.46;68.38;99662.56;5063030;28;20395;-71
2024/03/29 03:20:16;;;;;;;;;;;;;;;7.49;68.17;99655.25;5067801;28;19927;-69
2024/03/29 03:22:41;;;;;;;;;;;;;;;7.48;68.76;99649.13;5067681;28;19928;-68
2024/03/29 03:25:07;;;;;;;;;;;;;;;7.51;68.13;99647.97;5064294;28;20031;-70
2024/03/29 03:27:32;;;;;;;;;;;;;;;7.49;69.01;99639.38;5062009;28;19947;-69
2024/03/29 03:29:57;;;;;;;;;;;;;;;7.46;68.84;99641.38;5057680;28;19931;-70
2024/03/29 03:32:22;;;;;;;;;;;;;;;7.47;69.19;99636.91;5063490;28;20281;-68
2024/03/29 03:34:48;;;;;;;;;;;;;;;7.47;69.38;99639.53;5063024;28;19998;-70
2024/03/29 03:37:13;;;;;;;;;;;;;;;7.44;68.63;99634.59;5053858;28;19921;-71
2024/03/29 03:39:38;;;;;;;;;;;;;;;7.47;68.94;99634.25;5062983;28;19921;-72
2024/03/29 03:42:04;;;;;;;;;;;;;;;7.47;69.12;99642.19;5068610;28;19928;-74
2024/03/29 03:44:29;;;;;;;;;;;;;;;7.46;69.41;99630.78;5057979;28;19948;-70
2024/03/29 03:46:55;;;;;;;;;;;;;;;7.48;69.89;99633.25;5071201;28;19974;-68
2024/03/29 03:49:20;;;;;;;;;;;;;;;7.47;69.80;99632.41;5080214;28;19924;-70
2024/03/29 03:51:45;;;;;;;;;;;;;;;7.51;69.33;99632.91;5042853;28;20153;-70
2024/03/29 03:54:11;;;;;;;;;;;;;;;7.54;69.51;99632.59;5066683;28;20016;-70
2024/03/29 03:56:36;;;;;;;;;;;;;;;7.55;69.43;99634.25;5068700;28;19924;-69
2024/03/29 03:59:01;;;;;;;;;;;;;;;7.54;70.33;99627.28;5070140;28;19925;-71
2024/03/29 04:01:27;;;;;;;;;;;;;;;7.56;70.14;99630.59;5067730;28;19931;-71
2024/03/29 04:03:52;;;;;;;;;;;;;;;7.54;69.58;99624.63;5065939;28;20350;-71
2024/03/29 04:06:17;;;;;;;;;;;;;;;7.51;70.42;99617.00;5066432;28;19920;-69
2024/03/29 04:08:46;;;;;;;;;;;;;;;7.51;70.64;99622.31;5070174;28;20330;-70
2024/03/29 04:11:11;;;;;;;;;;;;;;;7.49;70.53;99613.69;5066052;28;19921;-69
2024/03/29 04:13:38;;;;;;;;;;;;;;;7.51;70.59;99614.34;5063881;28;19931;-69
2024/03/29 04:16:05;;;;;;;;;;;;;;;7.53;70.83;99615.03;5059651;28;20387;-70
2024/03/29 04:18:30;;;;;;;;;;;;;;;7.52;71.19;99612.53;5068282;28;19932;-70
2024/03/29 04:20:59;;;;;;;;;;;;;;;7.53;70.50;99615.03;5061004;28;19924;-69
2024/03/29 04:23:25;;;;;;;;;;;;;;;7.57;70.88;99607.56;5068623;28;19925;-70
2024/03/29 04:25:54;;;;;;;;;;;;;;;7.62;70.75;99610.53;5060966;28;19929;-69
2024/03/29 04:28:22;;;;;;;;;;;;;;;7.63;70.55;99605.06;5064752;28;19929;-69
2024/03/29 04:30:54;;;;;;;;;;;;;;;7.62;70.85;99608.72;5060179;28;20462;-68
2024/03/29 04:33:20;;;;;;;;;;;;;;;7.62;70.66;99605.22;5063867;28;20011;-71
2024/03/29 04:35:56;;;;;;;;;;;;;;;7.66;71.09;99595.94;5065827;28;20043;-69
2024/03/29 04:38:22;;;;;;;;;;;;;;;7.64;70.81;99596.09;5065907;28;19959;-69
2024/03/29 04:40:48;;;;;;;;;;;;;;;7.64;70.91;99595.28;5060592;28;19952;-70
2024/03/29 04:43:13;;;;;;;;;;;;;;;7.61;71.23;99596.47;5069414;28;19921;-72
2024/03/29 04:45:39;;;;;;;;;;;;;;;7.60;71.55;99589.50;5067335;28;19932;-73
2024/03/29 04:48:04;;;;;;;;;;;;;;;7.61;71.53;99580.56;5064825;28;19921;-71
2024/03/29 04:50:30;;;;;;;;;;;;;;;7.63;71.54;99586.50;5065242;28;19967;-70
2024/03/29 04:52:55;;;;;;;;;;;;;;;7.61;72.03;99590.34;5066873;28;19974;-68
2024/03/29 04:55:20;;;;;;;;;;;;;;;7.58;72.24;99580.91;5057675;28;19928;-70
2024/03/29 04:57:46;;;;;;;;;;;;;;;7.61;72.38;99577.91;5059400;28;19947;-70
2024/03/29 05:00:11;;;;;;;;;;;;;;;7.63;72.19;99575.91;5060568;28;19981;-69
2024/03/29 05:02:37;;;;;;;;;;;;;;;7.66;71.63;99583.50;5064511;28;19950;-73
2024/03/29 05:05:03;;;;;;;;;;;;;;;7.66;72.37;99575.56;5070011;28;19928;-69
2024/03/29 05:07:28;;;;;;;;;;;;;;;7.65;71.98;99579.22;5066149;28;19921;-72
2024/03/29 05:09:55;;;;;;;;;;;;;;;7.61;73.44;99574.44;5069870;28;19924;-69
2024/03/29 05:12:21;;;;;;;;;;;;;;;7.63;73.12;99567.13;5067276;28;20387;-71
2024/03/29 05:14:48;;;;;;;;;;;;;;;7.61;73.35;99569.97;5070202;28;19921;-70
2024/03/29 05:17:13;;;;;;;;;;;;;;;7.59;72.79;99574.59;5061368;28;19921;-70
2024/03/29 05:19:40;;;;;;;;;;;;;;;7.62;73.17;99565.47;5064047;28;19925;-69
2024/03/29 05:22:05;;;;;;;;;;;;;;;7.64;73.12;99561.66;5066122;28;19943;-69
2024/03/29 05:24:30;;;;;;;;;;;;;;;7.65;73.95;99565.13;5065826;28;19932;-70
2024/03/29 05:26:56;;;;;;;;;;;;;;;7.61;73.63;99556.72;5067976;28;20023;-69
2024/03/29 05:29:22;;;;;;;;;;;;;;;7.58;74.16;99553.59;5057613;28;20023;-70
2024/03/29 05:31:47;;;;;;;;;;;;;;;7.53;75.39;99545.34;5070523;28;19972;-70
2024/03/29 05:34:13;;;;;;;;;;;;;;;7.54;75.05;99547.81;5060444;28;20015;-71
2024/03/29 05:36:38;;;;;;;;;;;;;;;7.58;74.64;99553.59;5069688;28;19990;-70
2024/03/29 05:39:03;;;;;;;;;;;;;;;7.61;74.76;99551.41;5064317;28;19974;-69
2024/03/29 05:41:30;;;;;;;;;;;;;;;7.65;74.58;99544.75;5069585;28;19924;-68
2024/03/29 05:43:55;;;;;;;;;;;;;;;7.68;74.51;99549.72;5064998;28;19924;-71
2024/03/29 05:46:21;;;;;;;;;;;;;;;7.68;74.78;99539.13;5070062;28;20292;-72
2024/03/29 05:48:46;;;;;;;;;;;;;;;7.68;75.17;99541.75;5064292;28;20358;-72
2024/03/29 05:51:14;;;;;;;;;;;;;;;7.74;75.41;99543.72;5064217;28;20047;-71
2024/03/29 05:53:39;;;;;;;;;;;;;;;7.89;75.42;99545.63;5070272;28;19921;-70
2024/03/29 05:56:06;;;;;;;;;;;;;;;7.99;74.12;99538.28;5070720;28;20333;-70
2024/03/29 05:58:32;;;;;;;;;;;;;;;8.06;73.92;99542.69;5080505;28;19924;-70
2024/03/29 06:00:58;;;;;;;;;;;;;;;8.17;73.26;99543.31;5080814;28;19928;-71
2024/03/29 06:03:23;;;;;;;;;;;;;;;8.25;72.71;99541.41;5086268;28;19921;-69
2024/03/29 06:05:48;;;;;;;;;;;;;;;8.31;72.89;99535.38;5085444;28;19921;-70
2024/03/29 06:08:14;;;;;;;;;;;;;;;8.36;72.72;99541.00;5071683;28;19924;-71
2024/03/29 06:10:39;;;;;;;;;;;;;;;8.44;72.99;99539.31;5074548;28;20395;-69
2024/03/29 06:13:10;;;;;;;;;;;;;;;8.53;72.58;99535.56;5073829;28;19931;-69
2024/03/29 06:18:19;;;;;;;;;;;;;;;8.64;71.42;99535.97;5073347;28;19925;-69
2024/03/29 06:20:45;;;;;;;;;;;;;;;8.67;71.56;99532.97;5071121;28;20026;-69
2024/03/29 06:23:10;;;;;;;;;;;;;;;8.73;71.68;99523.47;5078635;28;19924;-71
2024/03/29 06:25:38;;;;;;;;;;;;;;;8.77;71.50;99524.75;5085205;28;20015;-70
2024/03/29 06:28:05;;;;;;;;;;;;;;;8.80;71.71;99521.72;5082239;28;19982;-67
2024/03/29 06:30:31;;;;;;;;;;;;;;;8.85;71.44;99514.03;5074289;28;19929;-67
2024/03/29 06:32:56;;;;;;;;;;;;;;;8.92;70.81;99509.63;5071683;28;20387;-69
2024/03/29 06:35:22;;;;;;;;;;;;;;;9.00;70.64;99520.19;5071714;28;20334;-69
2024/03/29 06:37:47;;;;;;;;;;;;;;;9.04;70.54;99517.16;5071341;28;20395;-68
2024/03/29 06:40:12;;;;;;;;;;;;;;;9.14;70.58;99510.56;5072959;28;20341;-67
2024/03/29 06:42:38;;;;;;;;;;;;;;;9.26;70.33;99508.28;5072618;28;19920;-69
2024/03/29 06:45:05;;;;;;;;;;;;;;;9.36;69.25;99511.47;5072387;28;20407;-67
2024/03/29 06:47:31;;;;;;;;;;;;;;;9.41;69.12;99509.09;5072453;28;19936;-68
2024/03/29 06:49:56;;;;;;;;;;;;;;;9.48;69.29;99520.59;5067335;28;20398;-67
2024/03/29 06:52:22;;;;;;;;;;;;;;;9.54;69.17;99514.56;5045213;28;19925;-69
2024/03/29 06:54:47;;;;;;;;;;;;;;;9.58;68.38;99507.03;5072820;28;19931;-69
2024/03/29 06:57:15;;;;;;;;;;;;;;;9.72;68.29;99502.69;5042038;28;19920;-67
2024/03/29 06:59:40;;;;;;;;;;;;;;;9.67;68.23;99510.41;5060014;28;19961;-67
2024/03/29 07:02:06;;;;;;;;;;;;;;;9.38;69.11;99504.13;5067147;28;19977;-67
2024/03/29 07:04:31;;;;;;;;;;;;;;;9.19;70.54;99507.34;5071768;28;19924;-69
2024/03/29 07:06:57;;;;;;;;;;;;;;;9.00;71.63;99506.91;5052561;28;19960;-68
2024/03/29 07:09:23;;;;;;;;;;;;;;;9.04;71.69;99501.25;5064846;28;20476;-68
2024/03/29 07:11:49;;;;;;;;;;;;;;;9.05;71.72;99502.88;5056306;28;19932;-69
2024/03/29 07:14:15;;;;;;;;;;;;;;;9.03;71.46;99502.25;5059095;28;19924;-72
2024/03/29 07:16:41;;;;;;;;;;;;;;;8.95;72.73;99496.00;5058605;28;19970;-69
2024/03/29 07:19:06;;;;;;;;;;;;;;;8.93;73.14;99507.81;5071748;28;20039;-67
2024/03/29 07:21:32;;;;;;;;;;;;;;;8.98;73.05;99500.97;5047879;28;20418;-67
2024/03/29 07:23:57;;;;;;;;;;;;;;;9.02;72.98;99506.72;5071189;28;19931;-70
2024/03/29 07:26:26;;;;;;;;;;;;;;;9.08;73.12;99500.69;5059322;28;19924;-68
2024/03/29 07:28:52;;;;;;;;;;;;;;;9.25;72.78;99493.31;5047026;28;19932;-68
2024/03/29 07:31:17;;;;;;;;;;;;;;;9.43;71.74;99493.78;5065155;28;19921;-66
2024/03/29 07:33:42;;;;;;;;;;;;;;;9.57;71.31;99495.59;5068336;28;19920;-68
2024/03/29 07:36:10;;;;;;;;;;;;;;;9.69;70.77;99492.44;5063793;28;20015;-69
2024/03/29 07:38:36;;;;;;;;;;;;;;;9.70;70.49;99494.09;5070144;28;19930;-66
2024/03/29 07:41:02;;;;;;;;;;;;;;;9.74;70.63;99492.69;5081861;28;19924;-67
2024/03/29 07:43:36;;;;;;;;;;;;;;;9.79;70.37;99492.94;5074321;28;20296;-66
2024/03/29 07:46:02;;;;;;;;;;;;;;;9.87;70.42;99480.38;5074696;28;19930;-65
2024/03/29 07:48:27;;;;;;;;;;;;;;;9.93;70.08;99479.63;5073877;28;19921;-67
2024/03/29 07:50:53;;;;;;;;;;;;;;;10.03;69.77;99479.28;5057732;28;19933;-69
2024/03/29 07:53:18;;;;;;;;;;;;;;;10.14;69.69;99481.47;5061173;28;19955;-67
2024/03/29 07:55:44;;;;;;;;;;;;;;;10.23;69.48;99471.53;5067246;28;19952;-66
2024/03/29 07:58:10;;;;;;;;;;;;;;;10.41;69.56;99471.91;5061331;28;19925;-68
2024/03/29 08:00:39;;;;;;;;;;;;;;;10.63;68.68;99469.97;5057191;28;19928;-66
2024/03/29 08:03:04;;;;;;;;;;;;;;;10.79;67.53;99464.38;5058338;28;19931;-67
2024/03/29 08:05:30;;;;;;;;;;;;;;;10.95;66.80;99462.41;5053705;28;19920;-67
2024/03/29 08:07:55;;;;;;;;;;;;;;;11.15;66.63;99460.66;5069360;28;19931;-66
2024/03/29 08:10:20;;;;;;;;;;;;;;;11.32;65.65;99462.00;5063978;28;20002;-69
2024/03/29 08:12:46;;;;;;;;;;;;;;;11.52;65.20;99463.88;5061871;28;19924;-69
2024/03/29 08:15:11;;;;;;;;;;;;;;;11.59;64.06;99460.25;5059108;28;19924;-70
2024/03/29 08:17:38;;;;;;;;;;;;;;;11.68;63.81;99458.19;5068238;28;19931;-66
2024/03/29 08:20:04;;;;;;;;;;;;;;;11.80;63.76;99453.94;5073880;28;19920;-67
2024/03/29 08:22:34;;;;;;;;;;;;;;;11.73;63.06;99458.41;5085126;28;20307;-68
2024/03/29 08:25:00;;;;;;;;;;;;;;;11.65;63.80;99453.28;5064415;28;19956;-67
2024/03/29 08:27:26;;;;;;;;;;;;;;;11.61;64.09;99460.03;5065245;28;20006;-69
2024/03/29 08:29:52;;;;;;;;;;;;;;;11.62;63.40;99451.84;5068409;28;20013;-66
2024/03/29 08:32:17;;;;;;;;;;;;;;;11.59;63.31;99451.41;5061347;28;19921;-68
2024/03/29 08:34:43;;;;;;;;;;;;;;;11.56;64.01;99454.47;5063770;28;19924;-69
2024/03/29 08:37:08;;;;;;;;;;;;;;;11.58;63.97;99445.25;5061030;28;20370;-69
2024/03/29 08:39:34;;;;;;;;;;;;;;;11.59;63.81;99440.75;5065160;28;20019;-71
2024/03/29 08:42:06;;;;;;;;;;;;;;;11.56;64.27;99441.94;5061794;28;19931;-67
2024/03/29 08:44:32;;;;;;;;;;;;;;;11.53;64.17;99436.19;5057510;28;19928;-68
2024/03/29 08:46:59;;;;;;;;;;;;;;;11.52;64.35;99442.56;5065215;28;20403;-71
2024/03/29 08:49:27;;;;;;;;;;;;;;;11.58;64.08;99441.78;5061876;28;19924;-68
2024/03/29 08:52:00;;;;;;;;;;;;;;;11.74;63.45;99438.72;5066926;28;19932;-66
2024/03/29 08:54:28;;;;;;;;;;;;;;;11.71;63.47;99433.78;5067645;28;19920;-71
2024/03/29 08:56:53;;;;;;;;;;;;;;;11.81;64.15;99428.09;5053284;28;20353;-65
2024/03/29 08:59:19;;;;;;;;;;;;;;;11.89;62.91;99423.41;5057922;28;20024;-66
2024/03/29 09:01:56;;;;;;;;;;;;;;;11.89;63.33;99411.91;5057049;28;19932;-70
2024/03/29 09:04:22;;;;;;;;;;;;;;;11.86;63.27;99418.47;5056511;28;19929;-67
2024/03/29 09:06:47;;;;;;;;;;;;;;;11.92;63.37;99424.84;5050524;28;19982;-68
2024/03/29 09:09:13;;;;;;;;;;;;;;;12.07;62.73;99417.44;5065841;28;19925;-68
2024/03/29 09:11:39;;;;;;;;;;;;;;;12.23;62.73;99413.56;5060421;28;19939;-66
2024/03/29 09:14:06;;;;;;;;;;;;;;;12.41;62.53;99411.88;5063509;28;19929;-68
2024/03/29 09:16:32;;;;;;;;;;;;;;;12.52;60.95;99413.13;5057590;28;20729;-65
2024/03/29 09:18:57;;;;;;;;;;;;;;;12.47;60.99;99412.94;5058837;28;19932;-67
2024/03/29 09:21:23;;;;;;;;;;;;;;;12.46;61.31;99403.28;5063269;28;19931;-68
2024/03/29 09:23:50;;;;;;;;;;;;;;;12.34;61.45;99405.72;5057886;28;19924;-66
2024/03/29 09:26:18;;;;;;;;;;;;;;;11.96;62.85;99402.88;5058800;28;20379;-68
2024/03/29 09:28:43;;;;;;;;;;;;;;;11.86;63.67;99402.47;5059722;28;19925;-67
2024/03/29 09:31:09;;;;;;;;;;;;;;;11.72;64.48;99406.91;5063833;28;19928;-69
2024/03/29 09:33:34;;;;;;;;;;;;;;;11.58;64.40;99396.44;5066404;28;19925;-69
2024/03/29 09:36:00;;;;;;;;;;;;;;;11.58;65.58;99399.94;5065714;28;20311;-67
2024/03/29 09:38:26;;;;;;;;;;;;;;;11.58;65.61;99405.25;5059090;28;19932;-67
2024/03/29 09:40:57;;;;;;;;;;;;;;;11.70;65.50;99389.47;5063927;28;20395;-68
2024/03/29 09:43:23;;;;;;;;;;;;;;;11.80;64.97;99392.59;5059643;28;20015;-67
2024/03/29 09:45:49;;;;;;;;;;;;;;;11.88;65.01;99400.41;5063488;28;19970;-68
2024/03/29 09:48:14;;;;;;;;;;;;;;;12.08;64.34;99397.75;5060355;28;19925;-67
2024/03/29 09:50:40;;;;;;;;;;;;;;;12.25;64.07;99395.50;5068116;28;19931;-69
2024/03/29 09:53:05;;;;;;;;;;;;;;;12.43;63.34;99394.84;5067702;28;19920;-68
2024/03/29 09:55:31;;;;;;;;;;;;;;;12.55;62.81;99394.00;5058038;28;19936;-68
2024/03/29 09:57:57;;;;;;;;;;;;;;;12.52;62.25;99397.09;5064594;28;19924;-69
2024/03/29 10:00:23;;;;;;;;;;;;;;;12.48;62.67;99403.06;5061208;28;19944;-70
2024/03/29 10:02:49;;;;;;;;;;;;;;;12.51;62.68;99405.31;5059658;28;19948;-70
2024/03/29 10:05:15;;;;;;;;;;;;;;;12.59;62.18;99411.25;5056866;28;19967;-68
2024/03/29 10:07:42;;;;;;;;;;;;;;;12.59;62.37;99407.75;5057917;28;19931;-67
2024/03/29 10:10:07;;;;;;;;;;;;;;;12.51;62.92;99395.47;5062940;28;19928;-68
2024/03/29 10:12:33;;;;;;;;;;;;;;;12.60;62.83;99399.53;5062535;28;19921;-68
2024/03/29 10:15:18;;;;;;;;;;;;;;;12.64;62.58;99400.75;5064861;28;19920;-67
2024/03/29 10:17:49;;;;;;;;;;;;;;;12.57;63.33;99399.97;5062644;28;19940;-69
2024/03/29 10:20:18;;;;;;;;;;;;;;;12.60;63.42;99394.19;5056513;28;20014;-66
2024/03/29 10:22:44;;;;;;;;;;;;;;;12.69;63.38;99397.44;5063257;28;19924;-70
2024/03/29 10:25:15;;;;;;;;;;;;;;;12.68;62.34;99401.97;5063923;28;19975;-69
2024/03/29 10:27:41;;;;;;;;;;;;;;;12.63;62.18;99392.94;5074094;28;20030;-71
2024/03/29 10:30:08;;;;;;;;;;;;;;;12.48;62.69;99395.88;5061452;28;19994;-70
2024/03/29 10:32:34;;;;;;;;;;;;;;;12.26;63.67;99397.13;5059560;28;20010;-71
2024/03/29 10:35:02;;;;;;;;;;;;;;;12.24;64.23;99396.50;5064630;28;20335;-68
2024/03/29 10:37:32;;;;;;;;;;;;;;;12.33;63.87;99392.59;5071926;28;21244;-69
2024/03/29 10:39:57;;;;;;;;;;;;;;;12.41;63.79;99382.50;5070019;28;19922;-68
2024/03/29 10:42:25;;;;;;;;;;;;;;;12.43;63.86;99384.97;5079114;28;19927;-69
2024/03/29 10:44:55;;;;;;;;;;;;;;;12.30;64.09;99390.34;5056636;28;19932;-70
2024/03/29 10:47:22;;;;;;;;;;;;;;;12.22;64.62;99379.88;5053974;28;19969;-67
2024/03/29 10:49:49;;;;;;;;;;;;;;;12.18;65.95;99381.34;5062462;28;20437;-68
2024/03/29 10:52:17;;;;;;;;;;;;;;;11.99;68.19;99375.78;5065760;28;19924;-67
2024/03/29 10:54:44;;;;;;;;;;;;;;;11.63;71.50;99376.16;5069030;28;20628;-68
2024/03/29 10:57:13;;;;;;;;;;;;;;;11.38;73.96;99378.56;5066270;28;20406;-72
2024/03/29 10:59:49;;;;;;;;;;;;;;;11.29;74.87;99379.78;5063420;28;19944;-68
2024/03/29 11:02:24;;;;;;;;;;;;;;;11.33;74.47;99380.19;5064144;28;20459;-70
2024/03/29 11:04:50;;;;;;;;;;;;;;;11.41;74.12;99367.47;5058143;28;20404;-73
2024/03/29 11:07:21;;;;;;;;;;;;;;;11.48;74.59;99372.81;5055254;28;19928;-73
2024/03/29 11:09:50;;;;;;;;;;;;;;;11.56;72.66;99371.81;5062972;28;19921;-69
2024/03/29 11:12:23;;;;;;;;;;;;;;;11.81;71.78;99362.22;5066427;28;19947;-72
2024/03/29 11:14:55;;;;;;;;;;;;;;;12.13;70.56;99362.44;5067227;28;20398;-68
2024/03/29 11:17:21;;;;;;;;;;;;;;;12.33;69.48;99361.38;5062793;28;19925;-69
2024/03/29 11:19:46;;;;;;;;;;;;;;;12.48;68.58;99347.81;5068095;28;19924;-66
2024/03/29 11:22:12;;;;;;;;;;;;;;;12.55;68.07;99347.78;5060992;28;19978;-70
2024/03/29 11:24:40;;;;;;;;;;;;;;;12.56;67.26;99350.25;5047431;28;19925;-69
2024/03/29 11:27:10;;;;;;;;;;;;;;;12.54;66.76;99351.50;5063880;28;19967;-70
2024/03/29 11:29:40;;;;;;;;;;;;;;;12.57;66.88;99343.88;5071803;28;19959;-69
2024/03/29 11:32:05;;;;;;;;;;;;;;;12.58;66.38;99342.03;5054886;28;19944;-67
2024/03/29 11:34:32;;;;;;;;;;;;;;;12.59;67.05;99341.81;5067427;28;19924;-67
2024/03/29 11:37:06;;;;;;;;;;;;;;;12.62;67.07;99344.06;5052951;28;19983;-69
2024/03/29 11:39:33;;;;;;;;;;;;;;;12.63;67.05;99345.69;5066030;28;19936;-68
2024/03/29 11:42:01;;;;;;;;;;;;;;;12.62;66.86;99338.72;5063134;28;19967;-68
2024/03/29 11:44:27;;;;;;;;;;;;;;;12.59;66.67;99336.47;5066715;28;19947;-68
2024/03/29 11:46:53;;;;;;;;;;;;;;;12.58;66.73;99336.69;5065891;28;19951;-69
2024/03/29 11:49:18;;;;;;;;;;;;;;;12.57;66.61;99330.53;5056111;28;19955;-72
2024/03/29 11:51:44;;;;;;;;;;;;;;;12.59;67.31;99332.97;5064809;28;19981;-68
2024/03/29 11:54:09;;;;;;;;;;;;;;;12.60;66.65;99327.44;5062969;28;19924;-67
2024/03/29 11:56:35;;;;;;;;;;;;;;;12.64;67.41;99323.31;5058278;28;19925;-68
2024/03/29 11:59:00;;;;;;;;;;;;;;;12.81;66.74;99320.16;5064679;28;19935;-69
2024/03/29 12:01:27;;;;;;;;;;;;;;;13.01;66.11;99318.25;5066290;28;19928;-68
2024/03/29 12:03:52;;;;;;;;;;;;;;;13.17;64.80;99311.56;5066448;28;19920;-68
2024/03/29 12:06:19;;;;;;;;;;;;;;;13.27;64.13;99304.72;5072205;28;19947;-68
2024/03/29 12:08:44;;;;;;;;;;;;;;;13.42;63.28;99306.28;5062203;28;19924;-69
2024/03/29 12:11:10;;;;;;;;;;;;;;;13.56;63.44;99299.81;5061238;28;19933;-69
2024/03/29 12:13:35;;;;;;;;;;;;;;;13.82;62.59;99301.44;5060624;28;19931;-71
2024/03/29 12:16:01;;;;;;;;;;;;;;;13.92;61.98;99302.59;5061211;28;19924;-66
2024/03/29 12:18:31;;;;;;;;;;;;;;;14.04;62.12;99305.38;5046076;28;19959;-68
2024/03/29 12:20:57;;;;;;;;;;;;;;;14.12;60.17;99306.94;5061022;28;19924;-67
2024/03/29 12:23:22;;;;;;;;;;;;;;;14.10;60.29;99299.13;5066702;28;19928;-70
2024/03/29 12:25:55;;;;;;;;;;;;;;;14.08;61.12;99289.69;5057051;28;20472;-69
2024/03/29 12:28:21;;;;;;;;;;;;;;;14.27;61.49;99284.13;5057485;28;20400;-67
2024/03/29 12:30:47;;;;;;;;;;;;;;;14.54;59.65;99292.72;5053809;28;19920;-70
2024/03/29 12:33:14;;;;;;;;;;;;;;;14.72;59.16;99296.41;5064528;28;19924;-67
2024/03/29 12:35:41;;;;;;;;;;;;;;;14.87;58.94;99294.19;5062187;28;19928;-68
2024/03/29 12:38:07;;;;;;;;;;;;;;;14.93;58.90;99295.94;5053853;28;19921;-67
2024/03/29 12:40:37;;;;;;;;;;;;;;;14.90;58.08;99304.44;5065070;28;20993;-67
2024/03/29 12:43:08;;;;;;;;;;;;;;;14.83;58.34;99293.81;5063455;28;19925;-66
2024/03/29 12:45:33;;;;;;;;;;;;;;;14.90;59.14;99293.72;5058138;28;19982;-68
2024/03/29 12:47:59;;;;;;;;;;;;;;;14.91;58.40;99298.03;5061157;28;19964;-67
2024/03/29 12:50:32;;;;;;;;;;;;;;;14.80;58.51;99298.81;5062272;28;20376;-70
2024/03/29 12:53:02;;;;;;;;;;;;;;;14.78;58.83;99290.19;5063229;28;19924;-69
2024/03/29 12:55:30;;;;;;;;;;;;;;;14.86;59.25;99282.66;5050676;28;19921;-67